createdAt,value
2018-04-08T06:20:15.743Z,64.69
2018-04-08T06:20:56.304Z,64.5
2018-04-08T06:21:36.864Z,64.69
2018-04-08T06:22:17.413Z,64.69
2018-04-08T06:22:57.982Z,64.69
2018-04-08T06:23:38.566Z,64.78
2018-04-08T06:24:19.130Z,64.78
2018-04-08T06:24:59.684Z,64.78
2018-04-08T06:25:40.365Z,64.69
2018-04-08T06:26:20.908Z,64.78
2018-04-08T06:27:01.556Z,64.78
2018-04-08T06:27:42.118Z,64.5
2018-04-08T06:28:22.678Z,64.31
2018-04-08T06:29:03.307Z,64.88
2018-04-08T06:29:43.867Z,64.5
2018-04-08T06:30:24.420Z,64.59
2018-04-08T06:31:04.980Z,64.12
2018-04-08T06:31:45.639Z,64.21
2018-04-08T06:32:26.206Z,64.12
2018-04-08T06:33:06.770Z,63.45
2018-04-08T06:33:47.460Z,63
2018-04-08T06:34:28.035Z,63.2
2018-04-08T06:35:08.598Z,62.81
2018-04-08T06:35:49.166Z,62.55
2018-04-08T06:36:29.724Z,62.37
2018-04-08T06:37:10.277Z,62.18
2018-04-08T06:37:50.849Z,61.79
2018-04-08T06:38:31.427Z,61.03
2018-04-08T06:39:11.995Z,61.13
2018-04-08T06:39:52.642Z,60.64
2018-04-08T06:40:33.193Z,60.77
2018-04-08T06:41:13.768Z,60.2
2018-04-08T06:41:54.348Z,59.53
2018-04-08T06:42:34.924Z,59.24
2018-04-08T06:43:15.476Z,58.76
2018-04-08T06:43:56.033Z,58.58
2018-04-08T06:44:36.720Z,58.89
2018-04-08T06:45:17.304Z,58.61
2018-04-08T06:45:57.841Z,57.93
2018-04-08T06:46:38.422Z,57.84
2018-04-08T06:47:18.990Z,57.55
2018-04-08T06:47:59.567Z,57.17
2018-04-08T06:48:40.131Z,56.02
2018-04-08T06:49:20.739Z,56.5
2018-04-08T06:50:01.285Z,56.34
2018-04-08T06:50:41.796Z,55.96
2018-04-08T06:51:22.449Z,55.86
2018-04-08T06:52:02.998Z,55.67
2018-04-08T06:52:43.781Z,55.1
2018-04-08T06:53:24.345Z,55.1
2018-04-08T06:54:04.920Z,54.8
2018-04-08T06:54:45.531Z,54.64
2018-04-08T06:55:26.177Z,54.64
2018-04-08T06:56:06.734Z,54.36
2018-04-08T06:56:47.293Z,53.88
2018-04-08T06:57:27.866Z,53.88
2018-04-08T06:58:08.422Z,53.4
2018-04-08T06:58:49.023Z,53.14
2018-04-08T06:59:29.585Z,53.23
2018-04-08T07:00:10.158Z,53.04
2018-04-08T07:00:50.725Z,52.85
2018-04-08T07:01:31.311Z,53.04
2018-04-08T07:02:11.872Z,52.66
2018-04-08T07:02:52.432Z,53.04
2018-04-08T07:03:32.987Z,52.47
2018-04-08T07:04:13.576Z,52.47
2018-04-08T07:04:54.148Z,52.18
2018-04-08T07:05:34.692Z,52.28
2018-04-08T07:06:15.376Z,52.37
2018-04-08T07:06:55.951Z,51.7
2018-04-08T07:07:36.512Z,51.79
2018-04-08T07:08:17.105Z,52.28
2018-04-08T07:08:57.663Z,52.18
2018-04-08T07:09:38.260Z,52.54
2018-04-08T07:10:18.817Z,53.02
2018-04-08T07:10:59.378Z,53.11
2018-04-08T07:11:39.959Z,52.92
2018-04-08T07:12:20.519Z,52.92
2018-04-08T07:13:01.217Z,52.37
2018-04-08T07:13:41.792Z,52.56
2018-04-08T07:14:22.503Z,52.09
2018-04-08T07:15:03.078Z,51.89
2018-04-08T07:15:43.649Z,51.32
2018-04-08T07:16:24.254Z,50.87
2018-04-08T07:17:04.869Z,50.67
2018-04-08T07:17:45.470Z,50.38
2018-04-08T07:18:26.049Z,50.38
2018-04-08T07:19:06.651Z,50.38
2018-04-08T07:19:47.246Z,50.58
2018-04-08T07:20:27.799Z,50.48
2018-04-08T07:21:08.408Z,50.48
2018-04-08T07:21:48.994Z,50.29
2018-04-08T07:22:29.584Z,49.91
2018-04-08T07:23:10.146Z,49.33
2018-04-08T07:23:50.761Z,49.26
2018-04-08T07:24:31.362Z,49.16
2018-04-08T07:25:11.932Z,49.36
2018-04-08T07:25:52.489Z,49.36
2018-04-08T07:26:33.060Z,49.16
2018-04-08T07:27:13.681Z,48.11
2018-04-08T07:27:54.258Z,47.92
2018-04-08T07:28:34.826Z,48.11
2018-04-08T07:29:15.576Z,47.92
2018-04-08T07:29:56.208Z,48.02
2018-04-08T07:30:36.781Z,47.82
2018-04-08T07:31:17.350Z,47.63
2018-04-08T07:31:57.977Z,48.11
2018-04-08T07:32:38.556Z,48.02
2018-04-08T07:33:19.109Z,47.92
2018-04-08T07:33:59.742Z,47.92
2018-04-08T07:34:40.296Z,48.21
2018-04-08T07:35:20.843Z,48.21
2018-04-08T07:36:01.418Z,47.94
2018-04-08T07:36:42.027Z,47.66
2018-04-08T07:37:22.647Z,47.75
2018-04-08T07:38:03.325Z,47.75
2018-04-08T07:38:43.967Z,46.89
2018-04-08T07:39:24.581Z,46.89
2018-04-08T07:40:05.267Z,46.98
2018-04-08T07:40:45.843Z,46.89
2018-04-08T07:41:26.429Z,46.89
2018-04-08T07:42:07.076Z,46.81
2018-04-08T07:42:47.881Z,46.72
2018-04-08T07:43:28.474Z,46.72
2018-04-08T07:44:09.118Z,46.5
2018-04-08T07:44:49.665Z,46.62
2018-04-08T07:45:30.260Z,46.79
2018-04-08T07:46:10.808Z,46.89
2018-04-08T07:46:51.487Z,46.72
2018-04-08T07:47:32.087Z,46.91
2018-04-08T07:48:12.845Z,46.34
2018-04-08T07:48:53.410Z,46.14
2018-04-08T07:49:34.051Z,46.24
2018-04-08T07:50:14.679Z,46.43
2018-04-08T07:50:55.263Z,45.95
2018-04-08T07:51:35.837Z,46.14
2018-04-08T07:52:16.425Z,46.24
2018-04-08T07:52:57.063Z,46.34
2018-04-08T07:53:37.650Z,45.68
2018-04-08T07:54:18.239Z,45.5
2018-04-08T07:54:58.854Z,44.92
2018-04-08T07:55:39.412Z,44.82
2018-04-08T07:56:20.000Z,44.63
2018-04-08T07:57:00.569Z,44.54
2018-04-08T07:57:41.162Z,44.63
2018-04-08T07:58:21.732Z,44.92
2018-04-08T07:59:02.338Z,44.73
2018-04-08T07:59:43.082Z,44.92
2018-04-08T08:00:23.663Z,44.15
2018-04-08T08:01:04.239Z,44.46
2018-04-08T08:01:44.805Z,43.98
2018-04-08T08:02:25.383Z,43.88
2018-04-08T08:03:05.968Z,43.7
2018-04-08T08:03:46.601Z,43.6
2018-04-08T08:04:27.138Z,43.02
2018-04-08T08:05:08.934Z,43.31
2018-04-08T08:05:48.604Z,43.38
2018-04-08T08:06:29.228Z,43.48
2018-04-08T08:07:09.834Z,44.15
2018-04-08T08:07:50.394Z,43.87
2018-04-08T08:08:30.962Z,44.06
2018-04-08T08:09:11.545Z,44.06
2018-04-08T08:09:52.288Z,43.96
2018-04-08T08:10:32.913Z,44.06
2018-04-08T08:11:13.566Z,44.24
2018-04-08T08:11:54.205Z,43.96
2018-04-08T08:12:34.809Z,43.96
2018-04-08T08:13:15.381Z,44.15
2018-04-08T08:13:56.044Z,44.24
2018-04-08T08:14:36.520Z,44.32
2018-04-08T08:15:17.119Z,44.8
2018-04-08T08:15:57.707Z,45
2018-04-08T08:16:38.262Z,45.57
2018-04-08T08:17:18.865Z,45.67
2018-04-08T08:17:59.438Z,45.76
2018-04-08T08:18:40.070Z,45.83
2018-04-08T08:19:20.646Z,46.24
2018-04-08T08:20:01.230Z,46.31
2018-04-08T08:20:41.848Z,46.31
2018-04-08T08:21:22.404Z,46.79
2018-04-08T08:22:02.991Z,46.98
2018-04-08T08:22:43.541Z,46.79
2018-04-08T08:23:24.106Z,46.5
2018-04-08T08:24:04.655Z,46.41
2018-04-08T08:24:45.234Z,46.79
2018-04-08T08:25:25.798Z,46.41
2018-04-08T08:26:06.510Z,46.22
2018-04-08T08:26:47.458Z,46.79
2018-04-08T08:27:28.233Z,46.41
2018-04-08T08:28:08.854Z,46.79
2018-04-08T08:28:49.571Z,46.79
2018-04-08T08:29:30.163Z,46.79
2018-04-08T08:30:10.725Z,46.79
2018-04-08T08:30:51.638Z,46.86
2018-04-08T08:31:32.279Z,46.89
2018-04-08T08:32:12.916Z,47.27
2018-04-08T08:32:53.659Z,47.66
2018-04-08T08:33:34.293Z,47.56
2018-04-08T08:34:14.860Z,47.08
2018-04-08T08:34:56.131Z,47.17
2018-04-08T08:35:36.694Z,46.79
2018-04-08T08:36:17.250Z,47.08
2018-04-08T08:36:57.797Z,47.37
2018-04-08T08:37:38.359Z,47.56
2018-04-08T08:38:18.967Z,47.08
2018-04-08T08:38:59.558Z,46.81
2018-04-08T08:39:40.138Z,46.7
2018-04-08T08:40:20.700Z,46.7
2018-04-08T08:41:01.279Z,46.79
2018-04-08T08:41:41.904Z,46.5
2018-04-08T08:42:22.456Z,46.7
2018-04-08T08:43:03.031Z,46.79
2018-04-08T08:43:43.604Z,46.72
2018-04-08T08:44:24.151Z,46.79
2018-04-08T08:45:04.714Z,47.08
2018-04-08T08:45:45.288Z,46.7
2018-04-08T08:46:25.850Z,46.6
2018-04-08T08:47:06.433Z,46.81
2018-04-08T08:47:47.009Z,46.62
2018-04-08T08:48:27.560Z,46.22
2018-04-08T08:49:08.180Z,46.89
2018-04-08T08:49:48.688Z,46.79
2018-04-08T08:50:29.249Z,46.5
2018-04-08T08:51:09.822Z,46.89
2018-04-08T08:51:50.389Z,46.89
2018-04-08T08:52:30.965Z,47.75
2018-04-08T08:53:11.538Z,47.17
2018-04-08T08:53:52.087Z,46.89
2018-04-08T08:54:32.629Z,46.79
2018-04-08T08:55:13.180Z,46.81
2018-04-08T08:55:53.760Z,47.3
2018-04-08T08:56:34.332Z,47.01
2018-04-08T08:57:14.896Z,46.53
2018-04-08T08:57:55.475Z,46.81
2018-04-08T08:58:36.042Z,46.72
2018-04-08T08:59:16.591Z,46.72
2018-04-08T08:59:57.187Z,46.72
2018-04-08T09:00:37.794Z,46.91
2018-04-08T09:01:18.349Z,46.81
2018-04-08T09:01:58.871Z,46.91
2018-04-08T09:02:39.451Z,47.01
2018-04-08T09:03:20.042Z,46.81
2018-04-08T09:04:00.647Z,46.62
2018-04-08T09:04:41.199Z,47.01
2018-04-08T09:05:21.766Z,46.72
2018-04-08T09:06:02.338Z,46.81
2018-04-08T09:06:42.957Z,46.62
2018-04-08T09:07:23.510Z,46.91
2018-04-08T09:08:04.069Z,46.81
2018-04-08T09:08:44.635Z,46.62
2018-04-08T09:09:25.206Z,47.3
2018-04-08T09:10:05.760Z,46.53
2018-04-08T09:10:46.320Z,46.24
2018-04-08T09:11:26.861Z,46.34
2018-04-08T09:12:07.464Z,46.62
2018-04-08T09:12:48.016Z,46.34
2018-04-08T09:13:28.547Z,46.45
2018-04-08T09:14:09.084Z,46.14
2018-04-08T09:14:49.634Z,46.62
2018-04-08T09:15:30.203Z,46.36
2018-04-08T09:16:10.753Z,45.68
2018-04-08T09:16:51.303Z,45.68
2018-04-08T09:17:31.965Z,45.59
2018-04-08T09:18:12.469Z,45.88
2018-04-08T09:18:53.076Z,46.07
2018-04-08T09:19:33.641Z,45.88
2018-04-08T09:20:14.228Z,46.45
2018-04-08T09:20:54.793Z,45.88
2018-04-08T09:21:35.367Z,45.4
2018-04-08T09:22:15.941Z,45.78
2018-04-08T09:22:56.520Z,45.68
2018-04-08T09:23:37.127Z,45.21
2018-04-08T09:24:17.723Z,45.59
2018-04-08T09:24:58.261Z,45.11
2018-04-08T09:25:38.802Z,45.21
2018-04-08T09:26:19.353Z,45.01
2018-04-08T09:26:59.895Z,45.47
2018-04-08T09:27:40.428Z,45.78
2018-04-08T09:28:20.998Z,45.76
2018-04-08T09:29:01.549Z,46.05
2018-04-08T09:29:42.121Z,46.24
2018-04-08T09:30:22.740Z,46.26
2018-04-08T09:31:03.313Z,45.67
2018-04-08T09:31:43.872Z,45.3
2018-04-08T09:32:24.449Z,46.05
2018-04-08T09:33:05.019Z,45.28
2018-04-08T09:33:45.582Z,45.67
2018-04-08T09:34:26.220Z,45.86
2018-04-08T09:35:06.786Z,46.05
2018-04-08T09:35:47.357Z,46.43
2018-04-08T09:36:28.018Z,46.43
2018-04-08T09:37:08.498Z,46.74
2018-04-08T09:37:49.049Z,46.07
2018-04-08T09:38:29.608Z,45.88
2018-04-08T09:39:10.173Z,45.78
2018-04-08T09:39:50.729Z,45.4
2018-04-08T09:40:31.303Z,45.21
2018-04-08T09:41:12.048Z,45.21
2018-04-08T09:41:52.793Z,45.4
2018-04-08T09:42:33.364Z,45.78
2018-04-08T09:43:14.195Z,45.78
2018-04-08T09:43:55.256Z,45.4
2018-04-08T09:44:36.958Z,45.11
2018-04-08T09:45:17.784Z,44.63
2018-04-08T09:45:58.656Z,44.82
2018-04-08T09:46:39.593Z,44.54
2018-04-08T09:47:20.238Z,44.44
2018-04-08T09:48:01.011Z,44.63
2018-04-08T09:48:41.846Z,44.82
2018-04-08T09:49:22.648Z,45.11
2018-04-08T09:50:03.223Z,45.21
2018-04-08T09:50:43.788Z,45.78
2018-04-08T09:51:24.382Z,45.4
2018-04-08T09:52:04.998Z,45.59
2018-04-08T09:52:45.732Z,45.59
2018-04-08T09:53:26.285Z,46.26
2018-04-08T09:54:06.958Z,46.74
2018-04-08T09:54:47.749Z,46.74
2018-04-08T09:55:28.301Z,45.88
2018-04-08T09:56:09.047Z,45.59
2018-04-08T09:56:49.743Z,45.01
2018-04-08T09:57:30.356Z,45.01
2018-04-08T09:58:10.906Z,45.01
2018-04-08T09:58:51.738Z,45.01
2018-04-08T09:59:32.313Z,45.3
2018-04-08T10:00:12.975Z,45.78
2018-04-08T10:00:53.534Z,46.17
2018-04-08T10:01:34.091Z,46.26
2018-04-08T10:02:14.766Z,46.65
2018-04-08T10:02:55.898Z,45.59
2018-04-08T10:03:36.845Z,46.26
2018-04-08T10:04:17.406Z,45.68
2018-04-08T10:04:57.996Z,45.21
2018-04-08T10:05:38.605Z,45.11
2018-04-08T10:06:19.666Z,44.92
2018-04-08T10:07:00.322Z,45.01
2018-04-08T10:07:40.857Z,45.01
2018-04-08T10:08:21.428Z,44.63
2018-04-08T10:09:01.982Z,44.44
2018-04-08T10:09:42.577Z,44.54
2018-04-08T10:10:23.141Z,44.73
2018-04-08T10:11:03.705Z,44.73
2018-04-08T10:11:44.281Z,44.73
2018-04-08T10:12:24.831Z,45.21
2018-04-08T10:13:05.391Z,44.73
2018-04-08T10:13:45.958Z,44.08
2018-04-08T10:14:26.509Z,43.96
2018-04-08T10:15:07.087Z,43.77
2018-04-08T10:15:47.648Z,43.96
2018-04-08T10:16:28.206Z,43.87
2018-04-08T10:17:08.770Z,43.96
2018-04-08T10:17:49.337Z,44.06
2018-04-08T10:18:29.898Z,43.96
2018-04-08T10:19:10.481Z,43.67
2018-04-08T10:19:51.006Z,43.87
2018-04-08T10:20:31.568Z,43.96
2018-04-08T10:21:12.117Z,43.77
2018-04-08T10:21:52.661Z,43.67
2018-04-08T10:22:33.238Z,43.87
2018-04-08T10:23:13.824Z,43.96
2018-04-08T10:23:54.375Z,43.67
2018-04-08T10:24:34.972Z,43.67
2018-04-08T10:25:15.532Z,44.06
2018-04-08T10:25:56.069Z,43.96
2018-04-08T10:26:36.658Z,43.96
2018-04-08T10:27:17.218Z,43.87
2018-04-08T10:27:57.816Z,43.48
2018-04-08T10:28:38.382Z,43.67
2018-04-08T10:29:18.982Z,44.06
2018-04-08T10:29:59.516Z,44.06
2018-04-08T10:30:40.134Z,43.87
2018-04-08T10:31:20.687Z,44.08
2018-04-08T10:32:01.232Z,43.98
2018-04-08T10:32:41.797Z,43.4
2018-04-08T10:33:22.340Z,43.5
2018-04-08T10:34:03.067Z,43.38
2018-04-08T10:34:43.639Z,43.38
2018-04-08T10:35:24.331Z,43.4
2018-04-08T10:36:04.969Z,43.21
2018-04-08T10:36:45.613Z,43.38
2018-04-08T10:37:26.292Z,43.19
2018-04-08T10:38:06.892Z,43.1
2018-04-08T10:38:47.465Z,43.1
2018-04-08T10:39:28.055Z,43.19
2018-04-08T10:40:08.608Z,43.29
2018-04-08T10:40:49.164Z,43.29
2018-04-08T10:41:29.718Z,42.9
2018-04-08T10:42:10.298Z,43.48
2018-04-08T10:42:50.894Z,43.5
2018-04-08T10:43:31.588Z,43.29
2018-04-08T10:44:12.157Z,43.38
2018-04-08T10:44:52.792Z,43.48
2018-04-08T10:45:33.566Z,43.29
2018-04-08T10:46:14.129Z,43.5
2018-04-08T10:46:54.772Z,43.31
2018-04-08T10:47:36.095Z,43.48
2018-04-08T10:48:16.662Z,42.9
2018-04-08T10:48:57.282Z,43.12
2018-04-08T10:49:37.906Z,43.1
2018-04-08T10:50:18.533Z,43.12
2018-04-08T10:50:59.108Z,43.19
2018-04-08T10:51:39.742Z,43.19
2018-04-08T10:52:20.236Z,43.48
2018-04-08T10:53:00.800Z,43.19
2018-04-08T10:53:41.362Z,43.48
2018-04-08T10:54:21.932Z,43.48
2018-04-08T10:55:02.515Z,43.19
2018-04-08T10:55:43.085Z,43.19
2018-04-08T10:56:23.616Z,43.48
2018-04-08T10:57:04.190Z,44.06
2018-04-08T10:57:44.867Z,43.67
2018-04-08T10:58:25.419Z,43.19
2018-04-08T10:59:06.119Z,43.19
2018-04-08T10:59:46.859Z,43.48
2018-04-08T11:00:27.476Z,43.1
2018-04-08T11:01:08.350Z,43.48
2018-04-08T11:01:48.948Z,43.48
2018-04-08T11:02:29.857Z,43.38
2018-04-08T11:03:10.454Z,43.31
2018-04-08T11:03:51.300Z,42.52
2018-04-08T11:04:31.943Z,42.52
2018-04-08T11:05:12.576Z,42.64
2018-04-08T11:05:53.558Z,42.73
2018-04-08T11:06:34.349Z,42.54
2018-04-08T11:07:15.280Z,42.54
2018-04-08T11:07:56.150Z,42.54
2018-04-08T11:08:37.050Z,42.35
2018-04-08T11:09:18.044Z,42.35
2018-04-08T11:09:58.945Z,42.44
2018-04-08T11:10:39.708Z,42.54
2018-04-08T11:11:21.242Z,42.64
2018-04-08T11:12:02.473Z,42.44
2018-04-08T11:12:43.254Z,42.64
2018-04-08T11:13:23.952Z,42.44
2018-04-08T11:14:05.673Z,41.96
2018-04-08T11:14:46.513Z,42.44
2018-04-08T11:15:27.211Z,42.44
2018-04-08T11:16:08.149Z,42.35
2018-04-08T11:16:49.017Z,42.25
2018-04-08T11:17:29.728Z,42.44
2018-04-08T11:18:10.546Z,42.54
2018-04-08T11:18:51.957Z,42.44
2018-04-08T11:19:33.153Z,42.06
2018-04-08T11:20:14.064Z,42.25
2018-04-08T11:20:55.833Z,42.35
2018-04-08T11:21:36.541Z,41.96
2018-04-08T11:22:18.208Z,42.25
2018-04-08T11:22:59.004Z,42.25
2018-04-08T11:23:39.632Z,42.25
2018-04-08T11:24:20.553Z,42.35
2018-04-08T11:25:01.530Z,42.06
2018-04-08T11:25:42.220Z,42.35
2018-04-08T11:26:23.114Z,42.54
2018-04-08T11:27:03.848Z,42.25
2018-04-08T11:27:44.640Z,42.44
2018-04-08T11:28:25.214Z,42.44
2018-04-08T11:29:05.783Z,42.54
2018-04-08T11:29:46.333Z,42.54
2018-04-08T11:30:27.025Z,42.25
2018-04-08T11:31:07.706Z,42.54
2018-04-08T11:31:48.382Z,42.64
2018-04-08T11:32:29.122Z,42.64
2018-04-08T11:33:09.919Z,42.44
2018-04-08T11:33:50.632Z,42.06
2018-04-08T11:34:31.218Z,41.96
2018-04-08T11:35:12.003Z,42.44
2018-04-08T11:35:52.686Z,42.44
2018-04-08T11:36:33.554Z,41.87
2018-04-08T11:37:14.639Z,41.67
2018-04-08T11:37:55.555Z,42.06
2018-04-08T11:38:36.488Z,42.06
2018-04-08T11:39:17.464Z,42.16
2018-04-08T11:39:58.264Z,41.96
2018-04-08T11:40:38.818Z,41.96
2018-04-08T11:41:19.557Z,42.06
2018-04-08T11:42:00.264Z,42.44
2018-04-08T11:42:40.849Z,42.54
2018-04-08T11:43:21.419Z,42.44
2018-04-08T11:44:02.316Z,42.83
2018-04-08T11:44:42.876Z,42.93
2018-04-08T11:45:24.408Z,43.12
2018-04-08T11:46:05.292Z,43.12
2018-04-08T11:46:46.293Z,43.31
2018-04-08T11:47:27.079Z,43.31
2018-04-08T11:48:07.901Z,43.12
2018-04-08T11:48:48.582Z,43.31
2018-04-08T11:49:29.173Z,43.21
2018-04-08T11:50:10.011Z,43.21
2018-04-08T11:50:51.787Z,43.31
2018-04-08T11:51:32.554Z,43.5
2018-04-08T11:52:13.294Z,43.5
2018-04-08T11:52:54.076Z,43.5
2018-04-08T11:53:34.632Z,43.33
2018-04-08T11:54:15.188Z,43.33
2018-04-08T11:54:55.897Z,42.64
2018-04-08T11:55:36.497Z,43.14
2018-04-08T11:56:17.467Z,43.31
2018-04-08T11:56:58.261Z,43.5
2018-04-08T11:57:39.185Z,43.88
2018-04-08T11:58:20.699Z,43.79
2018-04-08T11:59:01.506Z,43.91
2018-04-08T11:59:42.360Z,43.98
2018-04-08T12:00:22.947Z,43.52
2018-04-08T12:01:03.938Z,42.85
2018-04-08T12:01:44.538Z,42.66
2018-04-08T12:02:25.068Z,42.27
2018-04-08T12:03:05.684Z,42.27
2018-04-08T12:03:46.252Z,41.89
2018-04-08T12:04:27.245Z,42.27
2018-04-08T12:05:07.798Z,42.18
2018-04-08T12:05:48.504Z,41.99
2018-04-08T12:06:29.078Z,42.37
2018-04-08T12:07:09.696Z,42.08
2018-04-08T12:07:50.268Z,42.37
2018-04-08T12:08:30.910Z,42.37
2018-04-08T12:09:11.630Z,42.37
2018-04-08T12:09:52.199Z,42.47
2018-04-08T12:10:32.773Z,42.56
2018-04-08T12:11:13.468Z,42.56
2018-04-08T12:11:54.024Z,42.56
2018-04-08T12:12:34.608Z,42.37
2018-04-08T12:13:15.408Z,42.08
2018-04-08T12:13:55.933Z,42.37
2018-04-08T12:14:36.503Z,42.37
2018-04-08T12:15:17.108Z,41.99
2018-04-08T12:15:57.678Z,41.99
2018-04-08T12:16:38.232Z,42.37
2018-04-08T12:17:18.925Z,41.99
2018-04-08T12:17:59.505Z,42.27
2018-04-08T12:18:40.074Z,42.37
2018-04-08T12:19:20.731Z,41.79
2018-04-08T12:20:01.535Z,41.7
2018-04-08T12:20:42.414Z,41.89
2018-04-08T12:21:23.021Z,41.89
2018-04-08T12:22:03.604Z,41.99
2018-04-08T12:22:44.171Z,41.6
2018-04-08T12:23:24.748Z,41.31
2018-04-08T12:24:05.316Z,41.7
2018-04-08T12:24:45.851Z,41.31
2018-04-08T12:25:26.429Z,41.02
2018-04-08T12:26:06.986Z,41.02
2018-04-08T12:26:47.580Z,40.64
2018-04-08T12:27:28.196Z,41.12
2018-04-08T12:28:08.771Z,41.02
2018-04-08T12:28:49.534Z,40.64
2018-04-08T12:29:29.906Z,40.73
2018-04-08T12:30:10.480Z,40.73
2018-04-08T12:30:51.084Z,40.45
2018-04-08T12:31:31.682Z,40.64
2018-04-08T12:32:12.256Z,40.83
2018-04-08T12:32:52.836Z,40.83
2018-04-08T12:33:33.443Z,41.12
2018-04-08T12:34:14.041Z,40.55
2018-04-08T12:34:54.595Z,40.83
2018-04-08T12:35:35.240Z,41.22
2018-04-08T12:36:15.795Z,41.22
2018-04-08T12:36:56.362Z,40.73
2018-04-08T12:37:37.055Z,41.02
2018-04-08T12:38:17.650Z,40.83
2018-04-08T12:38:58.200Z,40.83
2018-04-08T12:39:38.928Z,40.73
2018-04-08T12:40:19.498Z,40.83
2018-04-08T12:41:00.064Z,41.02
2018-04-08T12:41:40.674Z,40.55
2018-04-08T12:42:21.234Z,41.22
2018-04-08T12:43:01.821Z,40.83
2018-04-08T12:43:42.394Z,40.73
2018-04-08T12:44:22.948Z,40.64
2018-04-08T12:45:03.560Z,40.64
2018-04-08T12:45:44.150Z,40.73
2018-04-08T12:46:24.706Z,40.83
2018-04-08T12:47:05.432Z,40.83
2018-04-08T12:47:46.027Z,40.25
2018-04-08T12:48:26.612Z,40.16
2018-04-08T12:49:07.279Z,40.28
2018-04-08T12:49:47.851Z,40.25
2018-04-08T12:50:28.414Z,39.87
2018-04-08T12:51:09.028Z,40.06
2018-04-08T12:51:49.674Z,40.16
2018-04-08T12:52:30.217Z,40.35
2018-04-08T12:53:10.829Z,39.97
2018-04-08T12:53:51.471Z,40.25
2018-04-08T12:54:32.019Z,39.87
2018-04-08T12:55:12.592Z,39.68
2018-04-08T12:55:53.199Z,39.87
2018-04-08T12:56:33.752Z,39.39
2018-04-08T12:57:14.338Z,39.58
2018-04-08T12:57:54.947Z,39.78
2018-04-08T12:58:35.534Z,39.78
2018-04-08T12:59:16.106Z,40.25
2018-04-08T12:59:56.670Z,40.16
2018-04-08T13:00:37.216Z,39.68
2018-04-08T13:01:17.780Z,40.06
2018-04-08T13:01:58.343Z,40.16
2018-04-08T13:02:38.956Z,40.47
2018-04-08T13:03:19.525Z,40.06
2018-04-08T13:04:00.079Z,40.18
2018-04-08T13:04:40.641Z,40.06
2018-04-08T13:05:21.269Z,39.79
2018-04-08T13:06:01.897Z,40.35
2018-04-08T13:06:42.469Z,39.68
2018-04-08T13:07:23.020Z,39.68
2018-04-08T13:08:03.629Z,39.68
2018-04-08T13:08:44.194Z,39.68
2018-04-08T13:09:24.761Z,40.35
2018-04-08T13:10:05.422Z,40.16
2018-04-08T13:10:46.021Z,39.78
2018-04-08T13:11:26.585Z,39.97
2018-04-08T13:12:07.294Z,39.78
2018-04-08T13:12:47.975Z,40.37
2018-04-08T13:13:28.534Z,39.99
2018-04-08T13:14:09.146Z,40.06
2018-04-08T13:14:49.665Z,40.08
2018-04-08T13:15:30.225Z,40.08
2018-04-08T13:16:10.992Z,40.18
2018-04-08T13:16:51.554Z,40.18
2018-04-08T13:17:32.115Z,40.18
2018-04-08T13:18:12.672Z,40.18
2018-04-08T13:18:53.234Z,40.18
2018-04-08T13:19:33.805Z,39.89
2018-04-08T13:20:14.376Z,40.08
2018-04-08T13:20:54.962Z,39.99
2018-04-08T13:21:35.521Z,40.28
2018-04-08T13:22:16.089Z,40.18
2018-04-08T13:22:56.684Z,40.18
2018-04-08T13:23:37.256Z,40.37
2018-04-08T13:24:17.829Z,40.18
2018-04-08T13:24:58.381Z,40.08
2018-04-08T13:25:38.957Z,39.79
2018-04-08T13:26:19.568Z,39.7
2018-04-08T13:27:00.130Z,39.7
2018-04-08T13:27:40.688Z,39.7
2018-04-08T13:28:21.254Z,39.89
2018-04-08T13:29:01.813Z,39.7
2018-04-08T13:29:42.363Z,39.7
2018-04-08T13:30:22.913Z,39.51
2018-04-08T13:31:03.467Z,39.22
2018-04-08T13:31:44.036Z,39.61
2018-04-08T13:32:24.620Z,39.61
2018-04-08T13:33:05.202Z,40.08
2018-04-08T13:33:45.769Z,39.99
2018-04-08T13:34:26.365Z,40.18
2018-04-08T13:35:06.943Z,40.28
2018-04-08T13:35:47.549Z,39.99
2018-04-08T13:36:28.123Z,40.08
2018-04-08T13:37:08.696Z,40.37
2018-04-08T13:37:49.445Z,40.18
2018-04-08T13:38:29.836Z,40.18
2018-04-08T13:39:10.394Z,39.79
2018-04-08T13:39:50.969Z,39.61
2018-04-08T13:40:31.558Z,39.7
2018-04-08T13:41:12.129Z,39.51
2018-04-08T13:41:52.696Z,39.7
2018-04-08T13:42:34.107Z,39.22
2018-04-08T13:43:14.284Z,39.61
2018-04-08T13:43:56.149Z,39.7
2018-04-08T13:44:36.800Z,39.51
2018-04-08T13:45:17.377Z,39.41
2018-04-08T13:45:58.070Z,39.79
2018-04-08T13:46:38.661Z,39.89
2018-04-08T13:47:19.312Z,39.99
2018-04-08T13:48:00.237Z,39.61
2018-04-08T13:48:40.861Z,39.79
2018-04-08T13:49:21.437Z,39.7
2018-04-08T13:50:02.152Z,39.79
2018-04-08T13:50:42.693Z,39.41
2018-04-08T13:51:23.245Z,39.22
2018-04-08T13:52:03.814Z,39.41
2018-04-08T13:52:44.372Z,39.61
2018-04-08T13:53:24.953Z,39.61
2018-04-08T13:54:05.517Z,39.31
2018-04-08T13:54:46.095Z,39.41
2018-04-08T13:55:26.648Z,39.51
2018-04-08T13:56:07.292Z,39.31
2018-04-08T13:56:47.890Z,39.79
2018-04-08T13:57:28.441Z,39.03
2018-04-08T13:58:09.002Z,39.51
2018-04-08T13:58:49.568Z,39.22
2018-04-08T13:59:30.111Z,39.41
2018-04-08T14:00:10.696Z,39.03
2018-04-08T14:00:51.416Z,39.03
2018-04-08T14:01:32.333Z,39.22
2018-04-08T14:02:12.853Z,39.31
2018-04-08T14:02:53.455Z,39.41
2018-04-08T14:03:34.069Z,39.51
2018-04-08T14:04:14.633Z,39.22
2018-04-08T14:04:55.273Z,39.31
2018-04-08T14:05:35.887Z,39.61
2018-04-08T14:06:16.466Z,39.22
2018-04-08T14:06:57.058Z,39.12
2018-04-08T14:07:37.626Z,39.61
2018-04-08T14:08:18.216Z,39.51
2018-04-08T14:08:58.764Z,39.22
2018-04-08T14:09:39.329Z,38.93
2018-04-08T14:10:19.924Z,39.04
2018-04-08T14:11:00.492Z,39.04
2018-04-08T14:11:41.050Z,39.03
2018-04-08T14:12:21.581Z,38.85
2018-04-08T14:13:02.213Z,39.04
2018-04-08T14:13:42.762Z,38.93
2018-04-08T14:14:23.391Z,39.03
2018-04-08T14:15:04.090Z,38.74
2018-04-08T14:15:44.656Z,38.85
2018-04-08T14:16:25.211Z,38.66
2018-04-08T14:17:05.823Z,38.45
2018-04-08T14:17:46.416Z,38.35
2018-04-08T14:18:27.006Z,38.74
2018-04-08T14:19:07.647Z,38.64
2018-04-08T14:19:48.518Z,38.85
2018-04-08T14:20:29.142Z,38.76
2018-04-08T14:21:09.758Z,38.76
2018-04-08T14:21:50.503Z,38.93
2018-04-08T14:22:30.995Z,39.22
2018-04-08T14:23:11.588Z,38.95
2018-04-08T14:23:52.125Z,38.93
2018-04-08T14:24:32.753Z,39.41
2018-04-08T14:25:13.261Z,39.53
2018-04-08T14:25:53.846Z,39.04
2018-04-08T14:26:34.450Z,38.74
2018-04-08T14:27:15.019Z,38.95
2018-04-08T14:27:56.082Z,38.76
2018-04-08T14:28:36.634Z,39.04
2018-04-08T14:29:17.230Z,38.93
2018-04-08T14:29:57.899Z,39.14
2018-04-08T14:30:38.623Z,38.74
2018-04-08T14:31:19.070Z,38.95
2018-04-08T14:31:59.636Z,39.14
2018-04-08T14:32:40.199Z,39.12
2018-04-08T14:33:20.801Z,38.95
2018-04-08T14:34:01.375Z,38.93
2018-04-08T14:34:41.926Z,39.12
2018-04-08T14:35:22.501Z,38.93
2018-04-08T14:36:03.039Z,39.31
2018-04-08T14:36:43.603Z,39.33
2018-04-08T14:37:24.234Z,39.51
2018-04-08T14:38:04.802Z,39.14
2018-04-08T14:38:45.393Z,39.03
2018-04-08T14:39:25.961Z,39.12
2018-04-08T14:40:06.537Z,39.14
2018-04-08T14:40:47.109Z,39.24
2018-04-08T14:41:27.653Z,39.04
2018-04-08T14:42:08.362Z,39.33
2018-04-08T14:42:49.001Z,39.43
2018-04-08T14:43:29.543Z,39.43
2018-04-08T14:44:10.108Z,39.33
2018-04-08T14:44:50.697Z,39.33
2018-04-08T14:45:31.258Z,39.04
2018-04-08T14:46:11.882Z,39.04
2018-04-08T14:46:52.461Z,39.04
2018-04-08T14:47:33.214Z,39.33
2018-04-08T14:48:13.757Z,39.33
2018-04-08T14:48:54.320Z,38.95
2018-04-08T14:49:35.009Z,39.04
2018-04-08T14:50:15.576Z,39.33
2018-04-08T14:50:56.143Z,39.33
2018-04-08T14:51:36.739Z,39.24
2018-04-08T14:52:17.300Z,39.53
2018-04-08T14:52:57.846Z,39.24
2018-04-08T14:53:38.416Z,39.41
2018-04-08T14:54:19.085Z,39.22
2018-04-08T14:54:59.595Z,38.95
2018-04-08T14:55:40.147Z,39.04
2018-04-08T14:56:20.716Z,39.03
2018-04-08T14:57:01.518Z,39.24
2018-04-08T14:57:42.092Z,39.43
2018-04-08T14:58:22.725Z,39.43
2018-04-08T14:59:03.276Z,39.33
2018-04-08T14:59:43.897Z,39.04
2018-04-08T15:00:24.521Z,39.62
2018-04-08T15:01:05.015Z,39.43
2018-04-08T15:01:46.799Z,39.62
2018-04-08T15:02:26.166Z,39.51
2018-04-08T15:03:06.740Z,39.14
2018-04-08T15:03:47.296Z,38.76
2018-04-08T15:04:27.840Z,38.37